Startpagina
METAR-TAF:

METAR-TAF

Vliegvelden :

Vliegbasis Koksijde

Koksijde, België

breedte: 51-05N, lengte: 002-39E, hoogte: 4 m

Actueel weer

Dit bericht is 34 minuten geleden gemaakt, om 22:25 UTC
Wind 7 kt uit het zuidoosten
Temperatuur 6°C
Vochtigheid 93%
Druk 1027 hPa
Zicht: 3700 m
nevel

METAR: EBFN 162225Z AUTO 14007KT 3700 BR OVC006/// 06/05 Q1027 YLO

Tijdstip: 23:59 (22:59 UTC)

Verwachting

Dit bericht is 7 uur en het 18 minuten geleden gemaakt, om 15:41 UTC
Verwachting geldig van 16 om 19 UTC tot 17 om 07 UTC
Wind 8 kt uit het oostzuidoosten
Zicht: 1500 m
Gebroken wolken op 300 ft
nevel
Tijdelijke
van 16 om 19 UTC tot 17 om 07 UTC
Zicht: 0500 m
Geheel bewolkt op 200 ft
mist
Kans 30% :
Tijdelijke
van 16 om 19 UTC tot 17 om 07 UTC
Wind 10 kt uit het oosten
Zicht: 4000 m
Verspreide wolken op 800 ft
nevel

TAF: EBFN 161541Z 1619/1707 12008KT 1500 BR BKN003 TEMPO 1619/1707 0500 FG OVC002 PROB30 TEMPO 1619/1707 09010KT 4000 BR SCT008

Waarnemingen en weersverwachtingen van meer dan 4000 vliegvelden (METAR en TAF).

De beschikbare stations zijn de gele en rode punten op de kaart.

Ga met uw muis naar het station om de naam te zien.

Klik dan om waarnemingen en weersverwachtingen te zien.

kaart wijzigen: klik op de groene knoppen met een zwart kruis om in te zoomen, op de groene knop met een streepje om uit te zoomen of op de groene pijlen voor aangrenzende kaarten.


METAR-TAF: